Time;durP1;ratioP1;P1;durP2;ratioP2;P2;SDS_P1;SDS_P2;PMS_P1;PMS_P2;Temp;Humidity;BMP_temperature;BMP_pressure;BME280_temperature;BME280_humidity;BME280_pressure;Samples;Min_cycle;Max_cycle;Signal;HPM_P1;HPM_P2
2023/05/01 00:00:52;;;;;;;8.67;4.33;;;9.40;1.00;;;;;;4968650;28;20249;-65
2023/05/01 00:03:19;;;;;;;9.03;3.87;;;9.40;1.00;;;;;;4938410;28;20199;-65
2023/05/01 00:05:47;;;;;;;5.67;3.80;;;9.30;1.00;;;;;;4972718;28;20246;-67
2023/05/01 00:08:14;;;;;;;7.10;3.73;;;9.30;1.00;;;;;;4953980;28;20194;-65
2023/05/01 00:10:42;;;;;;;5.17;3.60;;;9.30;1.00;;;;;;4971975;28;20212;-65
2023/05/01 00:13:08;;;;;;;6.03;3.60;;;9.30;1.00;;;;;;4943512;28;20871;-66
2023/05/01 00:15:36;;;;;;;5.83;3.27;;;9.30;1.00;;;;;;4954631;28;20729;-66
2023/05/01 00:18:03;;;;;;;7.60;3.17;;;9.20;1.00;;;;;;4954602;28;20242;-67
2023/05/01 00:20:30;;;;;;;5.37;3.43;;;9.20;1.00;;;;;;4971933;28;20204;-66
2023/05/01 00:22:57;;;;;;;7.07;3.40;;;9.10;1.00;;;;;;4972707;28;20194;-67
2023/05/01 00:25:24;;;;;;;5.10;3.20;;;9.10;1.00;;;;;;4930966;28;20293;-66
2023/05/01 00:27:51;;;;;;;6.97;3.57;;;9.00;1.00;;;;;;4962579;28;20716;-67
2023/05/01 00:30:18;;;;;;;8.93;3.57;;;9.00;1.00;;;;;;4952486;28;20226;-67
2023/05/01 00:32:45;;;;;;;4.70;3.20;;;9.00;1.00;;;;;;4954814;28;20198;-68
2023/05/01 00:35:12;;;;;;;7.20;3.50;;;9.00;1.00;;;;;;4950439;29;20238;-65
2023/05/01 00:37:39;;;;;;;5.20;3.17;;;9.00;1.00;;;;;;4946513;28;20292;-66
2023/05/01 00:40:07;;;;;;;6.77;3.33;;;9.00;1.00;;;;;;4972214;28;20197;-66
2023/05/01 00:42:38;;;;;;;8.17;3.97;;;9.10;1.00;;;;;;4956467;28;20194;-65
2023/05/01 00:45:07;;;;;;;6.00;3.27;;;9.10;1.00;;;;;;4954936;28;20210;-69
2023/05/01 00:47:35;;;;;;;9.07;3.53;;;9.00;1.00;;;;;;4959115;28;20197;-64
2023/05/01 00:50:04;;;;;;;6.57;3.30;;;9.00;1.00;;;;;;4970059;28;20192;-65
2023/05/01 00:52:31;;;;;;;6.53;3.30;;;8.90;1.00;;;;;;4969365;28;21100;-65
2023/05/01 00:54:58;;;;;;;6.83;3.03;;;8.90;1.00;;;;;;4945550;28;20202;-64
2023/05/01 00:57:25;;;;;;;7.57;3.40;;;8.90;1.00;;;;;;4952698;28;20193;-66
2023/05/01 00:59:52;;;;;;;6.37;3.03;;;8.90;1.00;;;;;;4954365;28;20233;-67
2023/05/01 01:02:20;;;;;;;5.93;3.30;;;8.80;1.00;;;;;;4950973;28;20202;-66
2023/05/01 01:04:47;;;;;;;8.90;3.23;;;8.80;1.00;;;;;;4972214;28;20308;-67
2023/05/01 01:07:22;;;;;;;6.70;2.73;;;8.80;1.00;;;;;;4970547;28;20605;-65
2023/05/01 01:10:10;;;;;;;8.07;3.53;;;8.80;1.00;;;;;;4969789;28;20225;-66
2023/05/01 01:13:35;;;;;;;10.37;3.23;;;8.80;1.00;;;;;;4950475;28;20292;-67
2023/05/01 01:16:12;;;;;;;6.47;3.30;;;8.70;1.00;;;;;;4906706;29;20208;-67
2023/05/01 01:18:47;;;;;;;9.40;3.40;;;8.60;1.00;;;;;;4905962;29;20212;-66
2023/05/01 01:21:14;;;;;;;7.90;3.57;;;8.60;1.00;;;;;;4930241;28;20639;-67
2023/05/01 01:23:59;;;;;;;4.90;3.20;;;8.50;1.00;;;;;;4936673;28;20199;-67
2023/05/01 01:27:01;;;;;;;6.97;3.67;;;8.50;1.00;;;;;;4937378;28;20202;-67
2023/05/01 01:30:03;;;;;;;7.67;3.50;;;8.50;1.00;;;;;;4952308;28;20570;-66
2023/05/01 01:33:02;;;;;;;5.63;3.97;;;8.40;1.00;;;;;;4951928;28;20201;-66
2023/05/01 01:35:31;;;;;;;6.97;4.37;;;8.40;1.00;;;;;;4945240;28;20205;-66
2023/05/01 01:38:09;;;;;;;6.80;3.83;;;8.30;1.00;;;;;;4942741;28;20203;-67
2023/05/01 01:40:42;;;;;;;6.03;3.20;;;8.20;1.00;;;;;;4950168;28;20281;-67
2023/05/01 01:43:12;;;;;;;8.73;3.83;;;8.20;1.00;;;;;;4948037;28;20262;-66
2023/05/01 01:45:42;;;;;;;7.20;3.70;;;8.10;1.00;;;;;;4967435;28;20204;-67
2023/05/01 01:48:15;;;;;;;4.80;3.57;;;8.00;1.00;;;;;;4946331;28;20204;-67
2023/05/01 01:50:44;;;;;;;9.47;3.93;;;7.90;1.00;;;;;;4953154;28;20222;-66
2023/05/01 01:53:16;;;;;;;8.37;4.37;;;7.80;1.00;;;;;;4953511;28;20297;-67
2023/05/01 01:55:46;;;;;;;7.37;4.37;;;7.70;1.00;;;;;;4953720;28;20297;-66
2023/05/01 01:58:15;;;;;;;11.23;4.23;;;7.70;1.00;;;;;;4952758;28;20211;-66
2023/05/01 02:00:44;;;;;;;5.93;3.60;;;7.80;1.00;;;;;;4937685;28;20206;-67
2023/05/01 02:03:13;;;;;;;6.13;3.73;;;7.80;1.00;;;;;;4970680;28;20198;-67
2023/05/01 02:05:45;;;;;;;8.87;4.03;;;7.80;1.00;;;;;;4941244;28;20694;-67
2023/05/01 02:08:13;;;;;;;6.30;3.97;;;7.80;1.00;;;;;;4944864;28;20257;-65
2023/05/01 02:10:42;;;;;;;7.17;4.03;;;7.80;1.00;;;;;;4953285;28;20210;-67
2023/05/01 02:13:12;;;;;;;7.83;3.53;;;7.80;1.00;;;;;;4952980;28;20194;-66
2023/05/01 02:15:40;;;;;;;9.03;3.93;;;7.70;1.00;;;;;;4953322;28;20202;-65
2023/05/01 02:18:08;;;;;;;6.13;4.13;;;7.70;1.00;;;;;;4960167;28;20538;-64
2023/05/01 02:20:36;;;;;;;7.00;3.93;;;7.70;1.00;;;;;;4970542;28;20277;-61
2023/05/01 02:23:06;;;;;;;7.27;4.00;;;7.60;1.00;;;;;;4953432;28;20205;-61
2023/05/01 02:25:36;;;;;;;8.30;4.17;;;7.60;1.00;;;;;;4953055;28;20205;-61
2023/05/01 02:28:11;;;;;;;7.47;3.97;;;7.60;1.00;;;;;;4969907;28;20196;-62
2023/05/01 02:30:38;;;;;;;4.33;3.80;;;7.60;1.00;;;;;;4970081;28;20220;-62
2023/05/01 02:33:09;;;;;;;4.47;3.63;;;7.60;1.00;;;;;;4969500;28;20786;-62
2023/05/01 02:35:46;;;;;;;4.67;3.70;;;7.60;1.00;;;;;;4970234;28;20206;-62
2023/05/01 02:38:16;;;;;;;13.47;4.20;;;7.60;1.00;;;;;;4954636;28;20245;-62
2023/05/01 02:40:47;;;;;;;6.63;4.10;;;7.60;1.00;;;;;;4970469;28;20182;-63
2023/05/01 02:43:17;;;;;;;6.43;4.87;;;7.60;1.00;;;;;;4969256;28;20286;-65
2023/05/01 02:45:46;;;;;;;5.20;4.13;;;7.50;1.00;;;;;;4952507;28;20208;-62
2023/05/01 02:48:18;;;;;;;7.77;4.23;;;7.50;1.00;;;;;;4969478;28;20205;-62
2023/05/01 02:50:47;;;;;;;6.50;4.30;;;7.50;1.00;;;;;;4953180;28;20260;-61
2023/05/01 02:53:15;;;;;;;7.03;4.30;;;7.50;1.00;;;;;;4952402;28;20548;-62
2023/05/01 02:55:48;;;;;;;8.30;3.90;;;7.30;1.00;;;;;;4966421;28;20281;-60
2023/05/01 02:58:16;;;;;;;6.50;3.80;;;7.30;1.00;;;;;;4935898;28;20261;-62
2023/05/01 03:00:44;;;;;;;9.27;4.40;;;7.30;1.00;;;;;;4945401;28;20206;-62
2023/05/01 03:03:11;;;;;;;9.67;4.27;;;7.20;1.00;;;;;;4959748;28;20765;-62
2023/05/01 03:05:39;;;;;;;10.17;4.47;;;7.10;1.00;;;;;;4958172;28;20234;-62
2023/05/01 03:08:08;;;;;;;9.10;4.57;;;7.00;1.00;;;;;;4949375;28;20186;-61
2023/05/01 03:10:38;;;;;;;9.80;4.00;;;7.00;1.00;;;;;;4942463;28;20217;-62
2023/05/01 03:13:05;;;;;;;9.70;4.80;;;7.00;1.00;;;;;;4945512;28;20233;-62
2023/05/01 03:15:32;;;;;;;8.30;4.60;;;6.80;1.00;;;;;;4960372;28;20231;-60
2023/05/01 03:17:59;;;;;;;6.63;4.10;;;6.60;1.00;;;;;;4953267;28;20198;-60
2023/05/01 03:20:26;;;;;;;8.60;4.47;;;6.50;1.00;;;;;;4952076;28;20273;-61
2023/05/01 03:22:53;;;;;;;10.20;4.57;;;6.50;1.00;;;;;;4936288;28;20209;-61
2023/05/01 03:25:20;;;;;;;8.23;4.97;;;6.50;1.00;;;;;;4952276;28;20297;-61
2023/05/01 03:27:48;;;;;;;8.33;4.57;;;6.60;1.00;;;;;;4939214;28;20207;-84
2023/05/01 03:30:15;;;;;;;10.70;5.00;;;6.70;1.00;;;;;;4969805;28;20248;-62
2023/05/01 03:32:42;;;;;;;8.67;4.90;;;6.80;1.00;;;;;;4951014;28;20207;-62
2023/05/01 03:35:17;;;;;;;8.50;4.40;;;6.90;1.00;;;;;;4952405;28;20654;-61
2023/05/01 03:37:44;;;;;;;7.83;4.50;;;6.90;1.00;;;;;;4952204;28;20226;-61
2023/05/01 03:40:18;;;;;;;6.10;3.83;;;6.90;1.00;;;;;;4957486;28;20725;-61
2023/05/01 03:43:04;;;;;;;8.10;4.37;;;6.90;1.00;;;;;;4969299;28;20280;-62
2023/05/01 03:45:31;;;;;;;6.57;4.47;;;6.90;1.00;;;;;;4950941;28;20209;-61
2023/05/01 03:47:59;;;;;;;8.17;4.80;;;6.90;1.00;;;;;;4935924;28;20590;-61
2023/05/01 03:50:26;;;;;;;9.20;4.90;;;6.80;1.00;;;;;;4951852;28;20253;-61
2023/05/01 03:52:53;;;;;;;5.33;4.00;;;6.70;1.00;;;;;;4948988;28;20207;-61
2023/05/01 03:55:20;;;;;;;7.00;4.63;;;6.70;1.00;;;;;;4963167;28;20298;-61
2023/05/01 03:57:48;;;;;;;7.00;4.30;;;6.70;1.00;;;;;;4951451;28;20238;-62
2023/05/01 04:00:15;;;;;;;5.63;4.27;;;6.70;1.00;;;;;;4951739;28;20222;-61
2023/05/01 04:02:43;;;;;;;13.43;4.77;;;6.80;1.00;;;;;;4954142;28;20198;-61
2023/05/01 04:05:14;;;;;;;8.53;5.00;;;6.80;1.00;;;;;;4952731;28;20240;-60
2023/05/01 04:07:47;;;;;;;5.57;4.50;;;6.90;1.00;;;;;;4973586;28;20678;-61
2023/05/01 04:10:15;;;;;;;9.07;4.80;;;7.00;1.00;;;;;;4953848;28;20684;-60
2023/05/01 04:12:50;;;;;;;7.03;4.43;;;7.00;1.00;;;;;;4957883;28;20220;-61
2023/05/01 04:15:17;;;;;;;5.97;4.33;;;7.10;1.00;;;;;;4963819;28;20198;-61
2023/05/01 04:17:45;;;;;;;8.27;4.07;;;7.10;1.00;;;;;;4957265;28;20213;-61
2023/05/01 04:20:12;;;;;;;6.87;4.57;;;7.10;1.00;;;;;;4964029;28;20259;-62
2023/05/01 04:22:40;;;;;;;8.90;4.80;;;7.10;1.00;;;;;;4970316;28;20194;-62
2023/05/01 04:25:07;;;;;;;7.40;4.40;;;6.80;1.00;;;;;;4971281;28;20218;-60
2023/05/01 04:27:34;;;;;;;5.03;3.90;;;6.90;1.00;;;;;;4957844;28;20276;-61
2023/05/01 04:30:02;;;;;;;7.97;4.27;;;7.10;1.00;;;;;;4972481;28;20231;-61
2023/05/01 04:32:30;;;;;;;8.30;4.03;;;7.20;1.00;;;;;;4963075;28;20214;-61
2023/05/01 04:34:58;;;;;;;6.63;4.33;;;7.50;1.00;;;;;;4978660;28;20602;-61
2023/05/01 04:37:26;;;;;;;9.23;4.33;;;7.70;1.00;;;;;;4970425;28;20203;-62
2023/05/01 04:39:54;;;;;;;6.63;3.80;;;8.00;1.00;;;;;;4936389;28;20762;-61
2023/05/01 04:42:28;;;;;;;7.67;4.50;;;8.20;1.00;;;;;;4954672;28;20225;-61
2023/05/01 04:44:55;;;;;;;7.83;4.70;;;8.30;1.00;;;;;;4947938;28;20288;-62
2023/05/01 04:47:22;;;;;;;9.63;4.37;;;8.20;1.00;;;;;;4967977;28;20225;-61
2023/05/01 04:49:49;;;;;;;9.43;4.17;;;8.30;1.00;;;;;;4951396;28;20260;-61
2023/05/01 04:52:16;;;;;;;6.17;4.30;;;8.40;1.00;;;;;;4940774;28;20285;-63
2023/05/01 04:54:54;;;;;;;11.93;4.70;;;8.40;1.00;;;;;;4944659;28;20721;-64
2023/05/01 04:57:23;;;;;;;8.60;4.57;;;8.50;1.00;;;;;;4952692;28;20206;-61
2023/05/01 04:59:50;;;;;;;5.60;3.77;;;8.40;1.00;;;;;;4946402;28;20219;-63
2023/05/01 05:02:17;;;;;;;4.23;3.47;;;8.40;1.00;;;;;;4938551;28;20685;-65
2023/05/01 05:04:44;;;;;;;8.30;3.80;;;8.40;1.00;;;;;;4951205;29;20569;-64
2023/05/01 05:07:12;;;;;;;7.33;3.87;;;8.40;1.00;;;;;;4947963;29;20431;-64
2023/05/01 05:09:59;;;;;;;8.57;4.23;;;8.50;1.00;;;;;;4946011;29;20277;-60
2023/05/01 05:12:26;;;;;;;6.63;4.60;;;8.60;1.00;;;;;;4933553;29;20206;-60
2023/05/01 05:14:53;;;;;;;8.47;4.77;;;8.70;1.00;;;;;;4949939;28;20221;-60
2023/05/01 05:17:20;;;;;;;8.23;4.40;;;8.80;1.00;;;;;;4949704;29;20206;-60
2023/05/01 05:19:47;;;;;;;7.27;4.37;;;8.90;1.00;;;;;;4949297;29;20221;-60
2023/05/01 05:22:14;;;;;;;8.63;4.60;;;9.10;1.00;;;;;;4950047;29;20211;-61
2023/05/01 05:25:03;;;;;;;6.57;4.40;;;9.10;1.00;;;;;;4951438;28;20211;-59
2023/05/01 05:27:35;;;;;;;5.63;3.73;;;9.20;1.00;;;;;;4951144;28;20716;-60
2023/05/01 05:30:04;;;;;;;5.50;3.73;;;9.40;1.00;;;;;;4950574;29;20211;-59
2023/05/01 05:32:33;;;;;;;8.53;4.17;;;9.70;1.00;;;;;;4949932;29;20211;-60
2023/05/01 05:35:00;;;;;;;4.93;3.63;;;10.10;1.00;;;;;;4948031;29;20853;-60
2023/05/01 05:37:27;;;;;;;6.37;3.70;;;10.30;1.00;;;;;;4934245;29;20274;-60
2023/05/01 05:39:55;;;;;;;5.40;3.67;;;10.50;1.00;;;;;;4949328;29;20317;-61
2023/05/01 05:42:24;;;;;;;7.10;3.57;;;10.50;1.00;;;;;;4950146;29;20198;-62
2023/05/01 05:44:51;;;;;;;5.17;3.47;;;10.50;1.00;;;;;;4948028;28;20191;-61
2023/05/01 05:47:18;;;;;;;5.40;3.53;;;10.70;1.00;;;;;;4934897;28;20230;-62
2023/05/01 05:49:45;;;;;;;5.23;3.37;;;11.00;1.00;;;;;;4931468;29;20212;-62
2023/05/01 05:52:12;;;;;;;8.00;3.73;;;11.40;1.00;;;;;;4945486;29;20235;-61
2023/05/01 05:54:39;;;;;;;5.77;3.33;;;11.60;1.00;;;;;;4939181;29;20214;-61
2023/05/01 05:57:07;;;;;;;5.20;3.50;;;12.50;1.00;;;;;;4949319;28;20293;-60
2023/05/01 05:59:38;;;;;;;4.57;3.10;;;13.60;1.00;;;;;;4930627;29;20223;-61
2023/05/01 06:02:05;;;;;;;6.50;4.45;;;14.50;1.00;;;;;;4932254;29;20200;-61
2023/05/01 06:04:33;;;;;;;5.72;3.50;;;14.90;1.00;;;;;;4954066;28;20234;-60
2023/05/01 06:07:01;;;;;;;4.97;3.13;;;15.00;1.00;;;;;;4948862;29;20207;-63
2023/05/01 06:09:28;;;;;;;7.70;3.70;;;14.70;1.00;;;;;;4939704;28;20199;-61
2023/05/01 06:11:55;;;;;;;5.25;3.15;;;14.90;1.00;;;;;;4946511;29;20191;-60
2023/05/01 06:14:23;;;;;;;4.72;3.25;;;15.30;1.00;;;;;;4948540;29;20207;-62
2023/05/01 06:16:50;;;;;;;6.90;3.55;;;16.00;1.00;;;;;;4950837;28;20199;-63
2023/05/01 06:19:17;;;;;;;7.25;3.70;;;17.00;1.00;;;;;;4949219;28;20214;-62
2023/05/01 06:21:48;;;;;;;5.18;3.45;;;17.20;1.00;;;;;;4947669;28;20254;-61
2023/05/01 06:24:15;;;;;;;5.63;3.08;;;17.30;1.00;;;;;;4946630;28;20206;-61
2023/05/01 06:26:47;;;;;;;6.05;3.33;;;17.80;1.00;;;;;;4949690;29;20191;-61
2023/05/01 06:29:15;;;;;;;5.95;3.05;;;18.00;1.00;;;;;;4938521;29;20195;-62
2023/05/01 06:31:43;;;;;;;4.38;3.13;;;18.40;1.00;;;;;;4947791;28;20198;-60
2023/05/01 06:34:10;;;;;;;6.20;3.20;;;19.00;1.00;;;;;;4948606;29;20214;-62
2023/05/01 06:36:48;;;;;;;6.10;3.17;;;18.70;1.00;;;;;;4947887;28;20198;-61
2023/05/01 06:39:15;;;;;;;6.38;3.67;;;18.80;1.00;;;;;;4944996;29;20199;-60
2023/05/01 06:41:46;;;;;;;5.07;2.63;;;19.10;1.00;;;;;;4948908;29;20711;-61
2023/05/01 06:44:14;;;;;;;7.60;3.33;;;19.80;1.00;;;;;;4943053;29;20948;-60
2023/05/01 06:46:41;;;;;;;4.68;3.13;;;20.60;1.00;;;;;;4947982;29;20256;-61
2023/05/01 06:49:08;;;;;;;7.45;3.10;;;20.60;1.00;;;;;;4947358;29;20234;-61
2023/05/01 06:51:36;;;;;;;7.97;3.10;;;21.60;1.00;;;;;;4948751;29;20218;-62
2023/05/01 06:54:03;;;;;;;5.00;3.00;;;22.60;1.00;;;;;;4948717;29;20730;-60
2023/05/01 06:56:31;;;;;;;3.80;2.42;;;23.60;1.00;;;;;;4948590;29;20219;-60
2023/05/01 06:58:58;;;;;;;5.22;2.80;;;23.80;1.00;;;;;;4949135;28;20214;-60
2023/05/01 07:01:25;;;;;;;6.45;2.70;;;23.40;1.00;;;;;;4948461;28;20294;-62
2023/05/01 07:03:52;;;;;;;5.88;3.15;;;22.50;1.00;;;;;;4952937;28;20226;-60
2023/05/01 07:06:19;;;;;;;5.43;2.70;;;23.00;1.00;;;;;;4969084;28;20232;-61
2023/05/01 07:08:46;;;;;;;6.13;2.65;;;22.70;1.00;;;;;;4969355;28;20618;-62
2023/05/01 07:11:13;;;;;;;5.40;2.70;;;22.70;1.00;;;;;;4963680;28;20209;-59
2023/05/01 07:13:40;;;;;;;5.55;2.70;;;22.20;1.00;;;;;;4969259;28;20277;-61
2023/05/01 07:16:07;;;;;;;4.68;2.70;;;22.50;1.00;;;;;;4969058;28;20201;-61
2023/05/01 07:18:34;;;;;;;5.28;2.63;;;22.70;1.00;;;;;;4968638;28;20530;-60
2023/05/01 07:21:01;;;;;;;3.92;2.55;;;22.70;1.00;;;;;;4965589;28;20246;-63
2023/05/01 07:23:28;;;;;;;3.42;2.35;;;23.40;1.00;;;;;;4967305;28;20218;-61
2023/05/01 07:25:55;;;;;;;5.75;2.42;;;24.00;1.00;;;;;;4967724;28;20190;-62
2023/05/01 07:28:22;;;;;;;3.47;2.50;;;23.50;1.00;;;;;;4966070;28;20201;-61
2023/05/01 07:30:50;;;;;;;3.05;2.17;;;23.60;1.00;;;;;;4963914;28;20529;-59
2023/05/01 07:33:17;;;;;;;3.78;2.45;;;23.70;1.00;;;;;;4968174;28;20253;-60
2023/05/01 07:35:45;;;;;;;5.72;2.45;;;24.20;1.00;;;;;;4947029;28;20202;-61
2023/05/01 07:38:14;;;;;;;4.32;2.20;;;23.50;1.00;;;;;;4971844;28;20217;-61
2023/05/01 07:40:41;;;;;;;3.42;2.17;;;24.80;1.00;;;;;;4966442;28;20492;-61
2023/05/01 07:43:11;;;;;;;6.15;2.20;;;25.30;1.00;;;;;;4969970;28;20209;-61
2023/05/01 07:45:38;;;;;;;3.80;2.10;;;21.60;1.00;;;;;;4971064;28;20225;-62
2023/05/01 07:48:06;;;;;;;4.40;2.58;;;22.70;1.00;;;;;;4970775;28;20198;-61
2023/05/01 07:50:33;;;;;;;4.60;2.17;;;23.70;1.00;;;;;;4952936;28;20226;-60
2023/05/01 07:53:00;;;;;;;2.45;2.08;;;24.50;1.00;;;;;;4952183;28;20199;-60
2023/05/01 07:55:27;;;;;;;2.97;2.20;;;26.30;1.00;;;;;;4971259;28;20199;-61
2023/05/01 07:57:54;;;;;;;4.55;1.95;;;28.30;1.00;;;;;;4969749;28;20597;-63
2023/05/01 08:00:22;;;;;;;6.70;2.45;;;27.80;1.00;;;;;;4971356;28;20215;-59
2023/05/01 08:02:50;;;;;;;3.75;2.17;;;28.30;1.00;;;;;;4966702;28;20194;-60
2023/05/01 08:05:17;;;;;;;3.45;2.03;;;24.90;1.00;;;;;;4970663;28;20234;-60
2023/05/01 08:07:45;;;;;;;4.85;2.30;;;27.20;1.00;;;;;;4969808;28;20233;-60
2023/05/01 08:10:12;;;;;;;5.88;2.40;;;26.60;1.00;;;;;;4967036;28;20222;-65
2023/05/01 08:12:39;;;;;;;4.75;2.13;;;25.70;1.00;;;;;;4953896;28;20562;-65
2023/05/01 08:15:06;;;;;;;2.58;2.08;;;22.40;1.00;;;;;;4972158;28;20261;-66
2023/05/01 08:17:36;;;;;;;3.80;2.22;;;22.00;1.00;;;;;;4968236;28;20198;-65
2023/05/01 08:20:04;;;;;;;6.30;2.30;;;21.70;1.00;;;;;;4968342;28;20265;-65
2023/05/01 08:22:31;;;;;;;4.03;2.30;;;23.50;1.00;;;;;;4971567;28;20277;-65
2023/05/01 08:24:58;;;;;;;3.35;2.33;;;22.80;1.00;;;;;;4964035;28;20199;-65
2023/05/01 08:27:25;;;;;;;2.92;2.08;;;21.60;1.00;;;;;;4967194;28;20586;-65
2023/05/01 08:29:52;;;;;;;3.78;2.30;;;23.40;1.00;;;;;;4968525;28;20245;-66
2023/05/01 08:32:19;;;;;;;7.97;2.17;;;22.80;1.00;;;;;;4959104;28;20203;-64
2023/05/01 08:34:46;;;;;;;2.10;1.90;;;23.50;1.00;;;;;;4954745;28;20198;-64
2023/05/01 08:37:13;;;;;;;4.75;2.20;;;25.40;1.00;;;;;;4950442;28;20253;-67
2023/05/01 08:39:40;;;;;;;3.95;2.35;;;26.30;1.00;;;;;;4965076;28;20191;-66
2023/05/01 08:42:07;;;;;;;4.50;2.25;;;27.00;1.00;;;;;;4968973;28;20684;-66
2023/05/01 08:44:38;;;;;;;4.80;2.50;;;25.40;1.00;;;;;;4967147;28;20557;-65
2023/05/01 08:47:09;;;;;;;4.47;2.30;;;23.90;1.00;;;;;;4953802;28;20657;-67
2023/05/01 08:49:37;;;;;;;5.85;2.40;;;23.20;1.00;;;;;;4971356;28;20680;-66
2023/05/01 08:52:05;;;;;;;6.30;2.50;;;23.80;1.00;;;;;;4951558;28;20230;-66
2023/05/01 08:54:34;;;;;;;3.13;2.38;;;25.70;1.00;;;;;;4964135;28;20202;-66
2023/05/01 08:57:04;;;;;;;4.45;2.30;;;22.40;1.00;;;;;;4968851;28;20198;-67
2023/05/01 08:59:34;;;;;;;4.22;2.42;;;25.10;1.00;;;;;;4949698;28;20202;-66
2023/05/01 09:02:04;;;;;;;5.13;2.45;;;24.60;1.00;;;;;;4951380;28;20292;-67
2023/05/01 09:04:34;;;;;;;3.95;2.63;;;25.50;1.00;;;;;;4966187;28;20238;-64
2023/05/01 09:07:02;;;;;;;5.07;2.60;;;25.20;1.00;;;;;;4947918;28;20218;-65
2023/05/01 09:09:30;;;;;;;6.03;2.65;;;25.00;1.00;;;;;;4967432;28;20186;-66
2023/05/01 09:12:22;;;;;;;5.47;2.35;;;24.70;1.00;;;;;;4946833;28;20210;-67
2023/05/01 09:14:54;;;;;;;3.15;2.13;;;25.80;1.00;;;;;;4970944;28;20260;-64
2023/05/01 09:17:22;;;;;;;4.90;2.55;;;27.50;1.00;;;;;;4953411;28;20289;-63
2023/05/01 09:19:50;;;;;;;3.53;2.10;;;28.70;1.00;;;;;;4966618;28;20678;-65
2023/05/01 09:22:19;;;;;;;3.97;2.10;;;31.00;1.00;;;;;;4970002;28;20212;-68
2023/05/01 09:24:46;;;;;;;3.85;2.47;;;31.90;1.00;;;;;;4950070;28;20202;-65
2023/05/01 09:27:13;;;;;;;4.13;2.20;;;33.30;1.00;;;;;;4968840;28;20280;-65
2023/05/01 09:29:46;;;;;;;4.03;2.40;;;34.40;1.00;;;;;;4970460;28;20203;-63
2023/05/01 09:32:19;;;;;;;4.10;2.30;;;36.10;1.00;;;;;;4966286;28;20199;-64
2023/05/01 09:34:48;;;;;;;3.85;2.30;;;35.70;1.00;;;;;;4964875;28;20210;-64
2023/05/01 09:37:29;;;;;;;3.08;2.10;;;33.10;1.00;;;;;;4965023;28;20594;-65
2023/05/01 09:40:11;;;;;;;3.63;1.98;;;33.10;1.00;;;;;;4949645;28;20243;-63
2023/05/01 09:42:49;;;;;;;4.28;2.15;;;35.40;1.00;;;;;;4952387;28;20202;-64
2023/05/01 09:45:17;;;;;;;3.17;2.00;;;36.50;1.00;;;;;;4965046;28;21067;-64
2023/05/01 09:47:45;;;;;;;3.80;2.03;;;36.40;1.00;;;;;;4950630;28;20226;-64
2023/05/01 09:50:33;;;;;;;4.57;1.90;;;34.10;1.00;;;;;;4968801;28;21247;-66
2023/05/01 09:53:03;;;;;;;1.92;1.63;;;32.30;1.00;;;;;;4967721;28;20196;-65
2023/05/01 09:55:30;;;;;;;5.03;2.13;;;31.90;1.00;;;;;;4965400;28;20272;-64
2023/05/01 09:57:57;;;;;;;2.85;1.83;;;32.10;1.00;;;;;;4948197;28;20565;-64
2023/05/01 10:00:25;;;;;;;3.80;1.92;;;33.60;1.00;;;;;;4969490;28;20187;-65
2023/05/01 10:02:52;;;;;;;4.07;2.03;;;34.20;1.00;;;;;;4951135;28;20294;-63
2023/05/01 10:05:19;;;;;;;2.75;1.80;;;32.90;1.00;;;;;;4951552;28;20364;-63
2023/05/01 10:08:02;;;;;;;3.63;2.00;;;32.80;1.00;;;;;;4952226;28;20221;-64
2023/05/01 10:10:29;;;;;;;3.25;2.00;;;32.00;1.00;;;;;;4969475;28;20276;-63
2023/05/01 10:13:13;;;;;;;5.55;1.92;;;31.60;1.00;;;;;;4968861;28;20277;-63
2023/05/01 10:15:40;;;;;;;3.17;1.90;;;31.50;1.00;;;;;;4969226;28;20190;-63
2023/05/01 10:18:10;;;;;;;5.35;2.00;;;31.10;1.00;;;;;;4967980;28;20194;-63
2023/05/01 10:20:37;;;;;;;5.50;1.92;;;29.70;1.00;;;;;;4949432;28;20289;-64
2023/05/01 10:23:04;;;;;;;2.83;1.92;;;29.70;1.00;;;;;;4964722;28;20248;-64
2023/05/01 10:25:32;;;;;;;4.78;2.00;;;30.80;1.00;;;;;;4967893;28;20201;-63
2023/05/01 10:28:05;;;;;;;3.10;2.10;;;31.60;1.00;;;;;;4951543;28;20197;-64
2023/05/01 10:30:34;;;;;;;3.33;1.80;;;32.70;1.00;;;;;;4961855;28;20201;-65
2023/05/01 10:33:01;;;;;;;4.22;1.70;;;33.30;1.00;;;;;;4950172;28;20190;-65
2023/05/01 10:35:37;;;;;;;2.15;1.60;;;32.60;1.00;;;;;;4949178;28;20574;-65
2023/05/01 10:38:10;;;;;;;3.67;1.85;;;31.00;1.00;;;;;;4964875;28;20214;-65
2023/05/01 10:40:40;;;;;;;2.53;1.55;;;30.40;1.00;;;;;;4963247;28;20190;-64
2023/05/01 10:43:29;;;;;;;1.70;1.60;;;31.50;1.00;;;;;;4964920;28;20710;-64
2023/05/01 10:46:08;;;;;;;3.13;1.70;;;30.80;1.00;;;;;;4956856;28;20970;-64
2023/05/01 10:48:42;;;;;;;2.78;1.90;;;30.70;1.00;;;;;;4967238;28;20225;-62
2023/05/01 10:51:13;;;;;;;4.30;2.20;;;29.50;1.00;;;;;;4933489;28;20250;-63
2023/05/01 10:53:42;;;;;;;2.72;1.90;;;29.60;1.00;;;;;;4959952;28;20205;-63
2023/05/01 10:56:24;;;;;;;4.15;1.48;;;29.90;1.00;;;;;;4951767;28;20277;-64
2023/05/01 10:58:59;;;;;;;2.25;1.52;;;29.60;1.00;;;;;;4950906;28;20544;-64
2023/05/01 11:01:38;;;;;;;2.60;1.58;;;29.70;1.00;;;;;;4938283;28;20202;-64
2023/05/01 11:04:21;;;;;;;3.35;1.88;;;30.30;1.00;;;;;;4949086;28;20261;-65
2023/05/01 11:07:12;;;;;;;4.07;1.80;;;30.30;1.00;;;;;;4961045;28;20198;-66
2023/05/01 11:09:39;;;;;;;6.50;1.85;;;28.90;1.00;;;;;;4947345;28;20202;-66
2023/05/01 11:12:11;;;;;;;2.85;1.60;;;27.10;1.00;;;;;;4953633;28;20198;-65
2023/05/01 11:15:01;;;;;;;8.35;1.70;;;29.60;1.00;;;;;;4975559;28;20236;-66
2023/05/01 11:17:41;;;;;;;4.68;1.50;;;30.90;1.00;;;;;;4956090;28;20584;-66
2023/05/01 11:20:31;;;;;;;4.85;2.10;;;31.40;1.00;;;;;;4955614;28;20201;-65
2023/05/01 11:22:59;;;;;;;3.10;1.65;;;31.00;1.00;;;;;;4954840;28;20206;-66
2023/05/01 11:25:31;;;;;;;4.50;1.90;;;31.10;1.00;;;;;;4969229;28;20208;-66
2023/05/01 11:28:01;;;;;;;3.47;1.40;;;32.00;1.00;;;;;;4973137;28;20229;-66
2023/05/01 11:30:38;;;;;;;2.60;1.70;;;32.00;1.00;;;;;;4960923;28;20209;-66
2023/05/01 11:33:06;;;;;;;1.60;1.50;;;32.00;1.00;;;;;;4970535;28;20273;-67
2023/05/01 11:35:37;;;;;;;2.50;1.80;;;31.20;1.00;;;;;;4958870;28;20209;-65
2023/05/01 11:38:04;;;;;;;2.60;1.50;;;30.90;1.00;;;;;;4956894;28;20224;-67
2023/05/01 11:40:33;;;;;;;2.22;1.40;;;30.50;1.00;;;;;;4972705;28;20746;-64
2023/05/01 11:43:02;;;;;;;2.40;1.50;;;30.30;1.00;;;;;;4951382;28;20233;-66
2023/05/01 11:45:30;;;;;;;3.92;1.50;;;29.80;1.00;;;;;;4937251;28;20202;-65
2023/05/01 11:47:58;;;;;;;2.55;1.63;;;29.60;1.00;;;;;;4946756;28;20284;-66
2023/05/01 11:50:35;;;;;;;2.65;1.70;;;28.20;1.00;;;;;;4968422;28;20555;-66
2023/05/01 11:53:10;;;;;;;2.15;1.90;;;25.00;1.00;;;;;;4964928;28;20190;-67
2023/05/01 11:55:37;;;;;;;2.28;1.63;;;22.60;1.00;;;;;;4972852;28;20996;-67
2023/05/01 11:58:05;;;;;;;4.13;1.85;;;21.90;1.00;;;;;;4957316;28;20217;-67
2023/05/01 12:00:35;;;;;;;3.35;1.90;;;23.40;1.00;;;;;;4957134;28;20201;-68
2023/05/01 12:03:10;;;;;;;1.85;1.40;;;24.30;1.00;;;;;;4973954;28;20245;-67
2023/05/01 12:05:41;;;;;;;2.35;1.60;;;25.00;1.00;;;;;;4956800;28;20668;-65
2023/05/01 12:08:10;;;;;;;3.08;1.75;;;23.80;1.00;;;;;;4957040;28;20208;-67
2023/05/01 12:10:39;;;;;;;2.60;1.60;;;23.50;1.00;;;;;;4957533;28;20202;-67
2023/05/01 12:13:08;;;;;;;3.20;1.80;;;22.60;1.00;;;;;;4974216;28;20214;-66
2023/05/01 12:15:38;;;;;;;2.90;1.63;;;22.70;1.00;;;;;;4963432;28;20665;-67
2023/05/01 12:18:05;;;;;;;2.40;1.52;;;22.60;1.00;;;;;;4961466;28;20300;-65
2023/05/01 12:20:40;;;;;;;3.15;1.40;;;21.70;1.00;;;;;;4955279;28;20202;-67
2023/05/01 12:23:13;;;;;;;2.25;1.40;;;22.20;1.00;;;;;;4961365;28;20480;-66
2023/05/01 12:25:41;;;;;;;3.15;1.63;;;21.60;1.00;;;;;;4952554;28;20194;-65
2023/05/01 12:28:18;;;;;;;3.97;1.60;;;21.20;1.00;;;;;;4970307;28;20717;-66
2023/05/01 12:30:47;;;;;;;3.00;1.70;;;21.60;1.00;;;;;;4953144;28;20198;-66
2023/05/01 12:33:16;;;;;;;1.70;1.30;;;21.60;1.00;;;;;;4953071;28;20206;-66
2023/05/01 12:35:45;;;;;;;2.08;1.58;;;22.10;1.00;;;;;;4953283;28;20194;-65
2023/05/01 12:38:18;;;;;;;4.00;1.50;;;22.60;1.00;;;;;;4946659;28;20253;-65
2023/05/01 12:40:56;;;;;;;2.88;1.50;;;23.40;1.00;;;;;;4970523;28;20399;-65
2023/05/01 12:43:34;;;;;;;2.03;1.42;;;23.20;1.00;;;;;;4970455;28;20273;-65
2023/05/01 12:46:03;;;;;;;1.92;1.40;;;23.70;1.00;;;;;;4969997;28;20204;-65
2023/05/01 12:48:32;;;;;;;1.95;1.40;;;23.80;1.00;;;;;;4952881;28;20217;-65
2023/05/01 12:51:00;;;;;;;1.73;1.40;;;24.30;1.00;;;;;;4952380;28;20241;-66
2023/05/01 12:53:28;;;;;;;1.70;1.20;;;23.10;1.00;;;;;;4963200;28;20193;-66
2023/05/01 12:55:58;;;;;;;1.80;1.38;;;21.90;1.00;;;;;;4946203;28;20213;-66
2023/05/01 12:58:37;;;;;;;3.22;1.40;;;22.80;1.00;;;;;;4943727;28;20218;-65
2023/05/01 13:01:05;;;;;;;3.78;1.98;;;22.60;1.00;;;;;;4963799;28;20769;-66
2023/05/01 13:03:33;;;;;;;3.53;1.63;;;22.30;1.00;;;;;;4961145;28;20202;-66
2023/05/01 13:06:05;;;;;;;4.45;2.17;;;22.70;1.00;;;;;;4952782;28;20670;-65
2023/05/01 13:08:38;;;;;;;2.83;2.30;;;23.00;1.00;;;;;;4951431;28;20651;-65
2023/05/01 13:11:16;;;;;;;3.85;1.55;;;23.00;1.00;;;;;;4965606;28;20229;-67
2023/05/01 13:13:44;;;;;;;2.17;1.27;;;22.50;1.00;;;;;;4943343;28;20225;-66
2023/05/01 13:16:12;;;;;;;2.03;1.20;;;22.00;1.00;;;;;;4954128;28;20214;-66